Terminal Aerodrome Forecast
Issued by NWS

Home | Current Version | Previous Version | Text Only | Print | Product List | Glossary On
Versions: 1 2 3 4 5 6 7 8 9 10 11 12 13 14 15 16 17 18 19 20 21 22 23 24 25 26 27 28 29 30
000
FTUS44 KFWD 180000 AAA
TAFFTW
TAF AMD
KFTW 180010Z 1800/1824 03005KT 2SM -RA BR OVC007
     FM180200 13006KT 2SM -DZ BR OVC005
     FM180600 14005KT 5SM BR OVC008
     FM181600 14005KT P6SM OVC013
     FM182200 05005KT P6SM OVC025=

USA.gov is the U.S. government's official web portal to all federal, state and local government web resources and services.